createdAt,value
2019-04-20T00:00:02.735Z,97.00
2019-04-20T00:15:00.541Z,99.90
2019-04-20T00:17:30.642Z,99.90
2019-04-20T00:20:05.822Z,99.90
2019-04-20T00:22:48.587Z,99.90
2019-04-20T00:25:39.496Z,99.90
2019-04-20T00:28:24.026Z,99.90
2019-04-20T00:30:54.415Z,99.90
2019-04-20T00:33:25.785Z,99.90
2019-04-20T00:35:58.963Z,99.90
2019-04-20T00:38:35.175Z,99.90
2019-04-20T00:41:05.233Z,99.90
2019-04-20T00:43:35.444Z,99.90
2019-04-20T00:46:08.216Z,99.90
2019-04-20T00:48:46.349Z,99.90
2019-04-20T00:51:23.885Z,99.90
2019-04-20T00:53:41.494Z,99.90
2019-04-20T00:56:07.664Z,99.90
2019-04-20T00:58:52.276Z,99.90
2019-04-20T01:01:30.832Z,99.90
2019-04-20T01:04:02.247Z,99.90
2019-04-20T01:06:36.637Z,99.90
2019-04-20T01:08:59.275Z,99.90
2019-04-20T01:11:35.054Z,99.90
2019-04-20T01:17:49.660Z,99.90
2019-04-20T01:20:19.307Z,99.90
2019-04-20T01:22:56.067Z,99.90
2019-04-20T01:25:28.361Z,99.90
2019-04-20T01:28:10.433Z,99.90
2019-04-20T01:30:32.237Z,99.90
2019-04-20T01:33:12.505Z,99.90
2019-04-20T01:35:48.142Z,99.90
2019-04-20T01:38:16.637Z,99.90
2019-04-20T01:40:29.639Z,99.90
2019-04-20T01:42:59.543Z,99.90
2019-04-20T01:45:34.086Z,99.90
2019-04-20T01:48:02.891Z,99.90
2019-04-20T01:50:35.310Z,99.90
2019-04-20T01:53:12.551Z,99.90
2019-04-20T01:55:51.100Z,99.90
2019-04-20T01:58:34.844Z,99.90
2019-04-20T02:01:27.143Z,99.90
2019-04-20T02:04:19.221Z,99.90
2019-04-20T02:06:48.774Z,99.90
2019-04-20T02:09:19.145Z,99.90
2019-04-20T02:11:49.787Z,99.90
2019-04-20T02:14:24.227Z,99.90
2019-04-20T02:16:57.705Z,99.90
2019-04-20T02:19:34.430Z,99.90
2019-04-20T02:22:04.014Z,99.90
2019-04-20T02:24:23.841Z,99.90
2019-04-20T02:26:53.762Z,99.90
2019-04-20T02:29:45.996Z,99.90
2019-04-20T02:32:22.468Z,99.90
2019-04-20T02:35:14.139Z,99.90
2019-04-20T02:38:03.081Z,99.90
2019-04-20T02:40:28.752Z,99.90
2019-04-20T02:43:02.002Z,99.90
2019-04-20T02:47:54.863Z,99.90
2019-04-20T02:50:30.416Z,99.90
2019-04-20T03:00:25.154Z,99.90
2019-04-20T03:02:45.078Z,99.90
2019-04-20T03:05:12.183Z,99.90
2019-04-20T03:07:53.387Z,99.90
2019-04-20T03:10:23.789Z,99.90
2019-04-20T03:12:58.155Z,99.90
2019-04-20T03:15:29.462Z,99.90
2019-04-20T03:17:59.423Z,99.90
2019-04-20T03:24:12.758Z,99.90
2019-04-20T03:26:47.946Z,99.90
2019-04-20T03:30:04.171Z,99.90
2019-04-20T03:32:57.629Z,99.90
2019-04-20T03:37:55.312Z,99.90
2019-04-20T03:40:01.544Z,99.90
2019-04-20T03:42:18.263Z,99.90
2019-04-20T03:44:54.242Z,99.90
2019-04-20T03:47:30.425Z,99.90
2019-04-20T03:50:10.574Z,99.90
2019-04-20T03:52:58.328Z,99.90
2019-04-20T03:55:31.177Z,99.90
2019-04-20T03:58:43.620Z,99.90
2019-04-20T04:01:27.294Z,99.90
2019-04-20T04:04:10.910Z,99.90
2019-04-20T04:06:26.066Z,99.90
2019-04-20T04:09:02.401Z,99.90
2019-04-20T04:11:36.566Z,99.90
2019-04-20T04:13:50.869Z,99.90
2019-04-20T04:16:22.705Z,99.90
2019-04-20T04:19:02.838Z,99.90
2019-04-20T04:21:41.193Z,99.90
2019-04-20T04:24:09.556Z,99.90
2019-04-20T04:26:42.739Z,99.90
2019-04-20T04:29:21.399Z,99.90
2019-04-20T04:31:55.486Z,99.90
2019-04-20T04:34:20.917Z,99.90
2019-04-20T04:36:57.596Z,99.90
2019-04-20T04:39:27.741Z,99.90
2019-04-20T04:42:01.836Z,99.90
2019-04-20T04:44:22.624Z,99.90
2019-04-20T04:46:42.674Z,99.90
2019-04-20T04:49:16.512Z,99.90
2019-04-20T04:51:49.008Z,99.90
2019-04-20T04:54:21.608Z,99.90
2019-04-20T04:56:42.080Z,99.90
2019-04-20T04:59:12.779Z,99.90
2019-04-20T05:01:47.786Z,99.90
2019-04-20T05:04:31.678Z,99.90
2019-04-20T05:06:58.427Z,99.90
2019-04-20T05:09:17.657Z,99.90
2019-04-20T05:11:50.683Z,99.90
2019-04-20T05:14:24.218Z,99.90
2019-04-20T05:17:07.869Z,99.90
2019-04-20T05:19:41.637Z,99.90
2019-04-20T05:22:22.983Z,99.90
2019-04-20T05:24:57.677Z,99.90
2019-04-20T05:27:54.286Z,99.90
2019-04-20T05:30:01.614Z,99.90
2019-04-20T05:32:39.890Z,99.90
2019-04-20T05:35:38.117Z,99.90
2019-04-20T05:38:04.669Z,99.90
2019-04-20T05:40:29.178Z,99.90
2019-04-20T05:43:09.220Z,99.90
2019-04-20T05:45:28.625Z,99.90
2019-04-20T05:48:05.110Z,99.90
2019-04-20T05:50:36.316Z,99.90
2019-04-20T05:53:12.978Z,99.90
2019-04-20T05:55:43.103Z,99.90
2019-04-20T05:58:17.845Z,99.90
2019-04-20T06:00:48.382Z,99.90
2019-04-20T06:03:18.811Z,99.90
2019-04-20T06:06:00.876Z,99.90
2019-04-20T06:08:34.190Z,99.90
2019-04-20T06:10:56.259Z,99.90
2019-04-20T06:13:27.736Z,97.20
2019-04-20T06:16:31.805Z,97.80
2019-04-20T06:19:10.233Z,94.40
2019-04-20T06:21:42.273Z,90.60
2019-04-20T06:24:22.330Z,90.20
2019-04-20T06:29:18.378Z,85.30
2019-04-20T06:31:52.029Z,82.10
2019-04-20T06:34:34.363Z,82.50
2019-04-20T06:36:57.428Z,83.00
2019-04-20T06:39:40.743Z,84.40
2019-04-20T06:42:09.922Z,83.20
2019-04-20T06:44:36.801Z,80.50
2019-04-20T06:47:10.346Z,82.20
2019-04-20T06:49:54.808Z,81.80
2019-04-20T06:52:33.990Z,78.20
2019-04-20T06:55:05.639Z,79.30
2019-04-20T06:57:55.180Z,79.40
2019-04-20T07:00:15.375Z,81.60
2019-04-20T07:02:48.553Z,81.00
2019-04-20T07:05:20.749Z,80.40
2019-04-20T07:07:47.614Z,82.40
2019-04-20T07:12:45.042Z,75.80
2019-04-20T07:15:19.936Z,73.00
2019-04-20T07:18:16.683Z,72.40
2019-04-20T07:20:46.305Z,71.80
2019-04-20T07:23:18.146Z,67.60
2019-04-20T07:25:43.374Z,66.10
2019-04-20T07:28:12.820Z,63.80
2019-04-20T07:30:42.147Z,59.50
2019-04-20T07:33:18.603Z,60.60
2019-04-20T07:35:49.321Z,60.90
2019-04-20T07:38:38.119Z,59.40
2019-04-20T07:40:48.054Z,61.40
2019-04-20T07:43:15.900Z,59.50
2019-04-20T07:45:53.154Z,58.00
2019-04-20T07:48:20.913Z,55.50
2019-04-20T07:50:46.179Z,56.20
2019-04-20T07:53:20.211Z,55.10
2019-04-20T07:55:56.435Z,54.80
2019-04-20T07:58:19.760Z,52.20
2019-04-20T08:01:08.062Z,51.70
2019-04-20T08:03:45.343Z,51.40
2019-04-20T08:06:14.512Z,52.80
2019-04-20T08:08:53.177Z,52.00
2019-04-20T08:11:30.226Z,51.60
2019-04-20T08:14:06.118Z,51.40
2019-04-20T08:16:41.028Z,50.40
2019-04-20T08:18:58.592Z,50.30
2019-04-20T08:21:35.764Z,50.70
2019-04-20T08:24:08.853Z,51.10
2019-04-20T08:26:25.093Z,50.30
2019-04-20T08:29:04.797Z,49.10
2019-04-20T08:32:08.554Z,47.90
2019-04-20T08:34:42.609Z,46.40
2019-04-20T08:37:13.522Z,47.30
2019-04-20T08:39:55.882Z,46.60
2019-04-20T08:42:16.367Z,43.50
2019-04-20T08:45:07.222Z,43.20
2019-04-20T08:47:35.345Z,42.50
2019-04-20T08:50:17.149Z,42.70
2019-04-20T08:53:06.922Z,43.80
2019-04-20T08:55:10.567Z,43.70
2019-04-20T08:57:27.050Z,44.00
2019-04-20T08:59:59.687Z,42.80
2019-04-20T09:02:28.561Z,42.70
2019-04-20T09:05:03.459Z,42.70
2019-04-20T09:07:32.043Z,41.80
2019-04-20T09:10:25.330Z,41.40
2019-04-20T09:12:45.254Z,41.60
2019-04-20T09:15:03.845Z,40.60
2019-04-20T09:17:50.587Z,41.60
2019-04-20T09:20:26.992Z,42.60
2019-04-20T09:23:09.743Z,38.60
2019-04-20T09:25:58.542Z,40.80
2019-04-20T09:28:18.909Z,38.50
2019-04-20T09:30:52.038Z,40.20
2019-04-20T09:33:46.060Z,41.00
2019-04-20T09:36:18.248Z,41.20
2019-04-20T09:39:22.450Z,41.10
2019-04-20T09:42:02.884Z,40.50
2019-04-20T09:44:39.817Z,41.40
2019-04-20T09:47:06.444Z,40.10
2019-04-20T09:49:46.042Z,41.20
2019-04-20T09:52:21.206Z,40.90
2019-04-20T09:54:54.859Z,42.90
2019-04-20T09:57:30.190Z,43.00
2019-04-20T10:00:01.483Z,40.40
2019-04-20T10:02:23.179Z,41.60
2019-04-20T10:04:47.229Z,42.30
2019-04-20T10:07:19.984Z,42.20
2019-04-20T10:09:49.032Z,42.30
2019-04-20T10:12:19.808Z,40.80
2019-04-20T10:14:50.867Z,37.60
2019-04-20T10:17:20.613Z,39.00
2019-04-20T10:19:51.383Z,38.70
2019-04-20T10:22:22.454Z,39.00
2019-04-20T10:24:53.803Z,40.00
2019-04-20T10:27:24.330Z,41.50
2019-04-20T10:29:55.485Z,37.00
2019-04-20T10:32:33.149Z,38.10
2019-04-20T10:34:56.839Z,35.60
2019-04-20T10:37:33.618Z,35.90
2019-04-20T10:40:04.719Z,35.80
2019-04-20T10:42:34.492Z,36.50
2019-04-20T10:45:05.962Z,36.00
2019-04-20T10:47:36.823Z,35.50
2019-04-20T10:50:07.195Z,34.50
2019-04-20T10:52:38.037Z,35.10
2019-04-20T10:55:08.399Z,37.00
2019-04-20T10:57:39.583Z,36.70
2019-04-20T11:00:10.589Z,36.60
2019-04-20T11:02:43.040Z,35.30
2019-04-20T11:05:12.661Z,35.60
2019-04-20T11:07:42.382Z,36.70
2019-04-20T11:10:18.642Z,36.00
2019-04-20T11:12:44.285Z,36.50
2019-04-20T11:15:14.596Z,36.60
2019-04-20T11:17:45.656Z,35.90
2019-04-20T11:20:15.616Z,37.80
2019-04-20T11:22:46.355Z,35.80
2019-04-20T11:25:16.566Z,36.00
2019-04-20T11:27:46.344Z,36.70
2019-04-20T11:30:16.134Z,37.80
2019-04-20T11:32:46.283Z,36.10
2019-04-20T11:35:23.823Z,35.40
2019-04-20T11:37:47.456Z,35.30
2019-04-20T11:40:17.582Z,36.20
2019-04-20T11:42:47.942Z,36.10
2019-04-20T11:45:18.439Z,35.50
2019-04-20T11:47:49.467Z,34.80
2019-04-20T11:50:19.837Z,34.50
2019-04-20T11:52:51.413Z,33.20
2019-04-20T11:55:22.301Z,34.10
2019-04-20T11:57:52.034Z,32.70
2019-04-20T12:00:29.829Z,32.90
2019-04-20T12:03:31.495Z,34.20
2019-04-20T12:05:59.749Z,34.00
2019-04-20T12:08:27.308Z,32.90
2019-04-20T12:11:00.395Z,31.60
2019-04-20T12:13:28.971Z,32.90
2019-04-20T12:15:59.435Z,33.50
2019-04-20T12:18:29.509Z,32.50
2019-04-20T12:20:59.304Z,32.90
2019-04-20T12:23:28.925Z,33.50
2019-04-20T12:25:59.717Z,32.40
2019-04-20T12:28:29.645Z,33.80
2019-04-20T12:31:07.763Z,33.80
2019-04-20T12:33:30.730Z,35.30
2019-04-20T12:36:00.468Z,32.70
2019-04-20T12:38:30.798Z,32.90
2019-04-20T12:41:03.112Z,32.90
2019-04-20T12:43:32.001Z,34.10
2019-04-20T12:46:02.253Z,33.20
2019-04-20T12:48:32.026Z,33.80
2019-04-20T12:51:03.762Z,34.60
2019-04-20T12:53:34.828Z,34.10
2019-04-20T12:56:04.563Z,33.30
2019-04-20T12:58:34.651Z,35.10
2019-04-20T13:01:04.621Z,33.20
2019-04-20T13:03:35.247Z,32.10
2019-04-20T13:06:05.856Z,32.80
2019-04-20T13:08:39.112Z,32.20
2019-04-20T13:11:12.916Z,32.50
2019-04-20T13:14:08.785Z,32.30
2019-04-20T13:16:39.020Z,32.30
2019-04-20T13:19:08.975Z,33.80
2019-04-20T13:21:39.042Z,33.00
2019-04-20T13:24:09.273Z,33.00
2019-04-20T13:26:39.401Z,34.20
2019-04-20T13:29:10.996Z,31.70
2019-04-20T13:31:41.860Z,31.70
2019-04-20T13:34:13.158Z,32.70
2019-04-20T13:36:44.106Z,31.50
2019-04-20T13:39:14.269Z,31.60
2019-04-20T13:41:56.139Z,32.00
2019-04-20T13:44:15.783Z,32.40
2019-04-20T13:46:45.439Z,31.30
2019-04-20T13:49:15.243Z,32.10
2019-04-20T13:51:45.026Z,32.60
2019-04-20T13:54:17.997Z,31.80
2019-04-20T13:56:48.014Z,31.40
2019-04-20T13:59:29.992Z,31.00
2019-04-20T14:02:30.895Z,32.00
2019-04-20T14:05:02.998Z,31.70
2019-04-20T14:07:33.907Z,31.90
2019-04-20T14:10:03.809Z,32.70
2019-04-20T14:12:37.537Z,31.90
2019-04-20T14:15:07.135Z,31.80
2019-04-20T14:17:37.184Z,32.20
2019-04-20T14:20:13.190Z,31.90
2019-04-20T14:22:39.314Z,31.90
2019-04-20T14:25:09.244Z,31.70
2019-04-20T14:27:40.174Z,31.20
2019-04-20T14:30:11.089Z,32.40
2019-04-20T14:32:40.980Z,31.10
2019-04-20T14:35:11.328Z,30.70
2019-04-20T14:37:41.671Z,31.60
2019-04-20T14:40:12.607Z,32.10
2019-04-20T14:42:47.812Z,31.80
2019-04-20T14:45:14.469Z,31.40
2019-04-20T14:47:45.773Z,31.70
2019-04-20T14:50:17.906Z,32.40
2019-04-20T14:52:47.640Z,33.30
2019-04-20T14:55:19.135Z,32.50
2019-04-20T14:57:49.815Z,32.80
2019-04-20T15:00:41.586Z,33.60
2019-04-20T15:03:30.350Z,33.00
2019-04-20T15:06:02.076Z,33.90
2019-04-20T15:08:32.710Z,32.70
2019-04-20T15:11:02.960Z,32.10
2019-04-20T15:13:32.931Z,31.80
2019-04-20T15:16:02.669Z,32.90
2019-04-20T15:18:39.763Z,32.40
2019-04-20T15:21:11.434Z,32.40
2019-04-20T15:23:41.552Z,33.00
2019-04-20T15:26:12.717Z,33.00
2019-04-20T15:28:42.503Z,33.00
2019-04-20T15:31:12.198Z,34.20
2019-04-20T15:33:43.136Z,34.10
2019-04-20T15:36:13.816Z,32.80
2019-04-20T15:38:45.004Z,34.80
2019-04-20T15:41:15.624Z,34.60
2019-04-20T15:43:46.015Z,34.80
2019-04-20T15:46:17.105Z,35.60
2019-04-20T15:48:48.043Z,35.50
2019-04-20T15:51:17.743Z,36.80
2019-04-20T15:53:47.477Z,36.80
2019-04-20T15:56:18.528Z,34.20
2019-04-20T15:58:48.459Z,35.20
2019-04-20T16:01:20.643Z,34.30
2019-04-20T16:03:55.263Z,35.90
2019-04-20T16:06:25.252Z,34.40
2019-04-20T16:08:57.035Z,35.70
2019-04-20T16:11:26.793Z,34.30
2019-04-20T16:13:58.217Z,35.00
2019-04-20T16:16:27.905Z,34.50
2019-04-20T16:18:58.838Z,34.20
2019-04-20T16:21:32.034Z,35.00
2019-04-20T16:24:10.860Z,35.20
2019-04-20T16:26:49.455Z,35.50
2019-04-20T16:29:21.818Z,36.40
2019-04-20T16:31:52.544Z,37.00
2019-04-20T16:34:23.280Z,36.50
2019-04-20T16:36:55.198Z,36.50
2019-04-20T16:39:24.703Z,37.20
2019-04-20T16:41:54.532Z,36.30
2019-04-20T16:44:25.135Z,37.30
2019-04-20T16:46:56.184Z,37.40
2019-04-20T16:49:25.874Z,37.40
2019-04-20T16:51:56.875Z,37.30
2019-04-20T16:54:27.973Z,37.80
2019-04-20T16:56:57.681Z,37.70
2019-04-20T16:59:28.261Z,37.60
2019-04-20T17:01:58.297Z,37.90
2019-04-20T17:04:28.916Z,37.50
2019-04-20T17:07:16.810Z,37.50
2019-04-20T17:09:47.435Z,37.90
2019-04-20T17:12:17.749Z,38.80
2019-04-20T17:14:47.708Z,39.10
2019-04-20T17:17:17.817Z,39.40
2019-04-20T17:19:47.479Z,39.20
2019-04-20T17:22:17.327Z,39.60
2019-04-20T17:24:49.448Z,39.40
2019-04-20T17:27:49.162Z,39.70
2019-04-20T17:30:52.917Z,39.60
2019-04-20T17:33:54.890Z,39.80
2019-04-20T17:36:19.726Z,40.40
2019-04-20T17:38:50.390Z,40.50
2019-04-20T17:41:41.412Z,40.80
2019-04-20T17:44:10.015Z,40.60
2019-04-20T17:46:37.130Z,41.30
2019-04-20T17:49:09.411Z,41.60
2019-04-20T17:51:49.068Z,42.00
2019-04-20T17:54:22.262Z,43.20
2019-04-20T17:56:52.286Z,44.30
2019-04-20T17:59:22.342Z,44.10
2019-04-20T18:02:30.597Z,43.90
2019-04-20T18:05:20.102Z,42.90
2019-04-20T18:07:58.928Z,44.80
2019-04-20T18:10:16.323Z,45.90
2019-04-20T18:12:35.293Z,46.70
2019-04-20T18:15:15.347Z,47.40
2019-04-20T18:18:23.660Z,48.10
2019-04-20T18:21:03.141Z,48.40
2019-04-20T18:23:38.052Z,49.20
2019-04-20T18:26:30.113Z,50.10
2019-04-20T18:29:02.982Z,50.70
2019-04-20T18:31:15.503Z,51.20
2019-04-20T18:33:46.450Z,52.00
2019-04-20T18:36:23.370Z,52.80
2019-04-20T18:38:54.309Z,53.50
2019-04-20T18:41:28.610Z,53.50
2019-04-20T18:43:55.420Z,53.50
2019-04-20T18:46:43.961Z,54.00
2019-04-20T18:49:10.032Z,54.70
2019-04-20T18:51:25.741Z,55.30
2019-04-20T18:54:00.601Z,55.60
2019-04-20T18:56:33.082Z,55.60
2019-04-20T18:58:58.992Z,56.10
2019-04-20T19:01:33.206Z,56.10
2019-04-20T19:04:00.055Z,56.20
2019-04-20T19:06:33.957Z,56.10
2019-04-20T19:09:09.556Z,56.50
2019-04-20T19:11:44.741Z,56.80
2019-04-20T19:14:37.182Z,57.10
2019-04-20T19:17:23.079Z,56.90
2019-04-20T19:19:54.676Z,57.10
2019-04-20T19:22:23.936Z,57.80
2019-04-20T19:24:53.873Z,58.00
2019-04-20T19:27:36.057Z,58.00
2019-04-20T19:30:11.755Z,58.20
2019-04-20T19:32:39.980Z,58.20
2019-04-20T19:35:08.614Z,58.30
2019-04-20T19:37:40.665Z,58.20
2019-04-20T19:40:11.986Z,59.40
2019-04-20T19:42:45.184Z,60.00
2019-04-20T19:45:31.579Z,60.10
2019-04-20T19:47:54.744Z,60.40
2019-04-20T19:50:35.595Z,60.70
2019-04-20T19:53:14.437Z,61.60
2019-04-20T19:55:33.701Z,62.70
2019-04-20T19:58:03.024Z,63.10
2019-04-20T20:00:28.946Z,63.50
2019-04-20T20:02:59.508Z,64.40
2019-04-20T20:05:33.716Z,63.80
2019-04-20T20:08:09.645Z,63.90
2019-04-20T20:10:37.458Z,64.90
2019-04-20T20:13:04.747Z,65.80
2019-04-20T20:15:39.546Z,66.30
2019-04-20T20:18:27.833Z,67.80
2019-04-20T20:20:55.364Z,69.20
2019-04-20T20:23:11.963Z,69.50
2019-04-20T20:25:45.917Z,70.70
2019-04-20T20:28:28.708Z,71.60
2019-04-20T20:30:56.961Z,71.80
2019-04-20T20:33:37.933Z,72.90
2019-04-20T20:35:58.323Z,73.90
2019-04-20T20:38:27.986Z,75.70
2019-04-20T20:41:01.559Z,77.80
2019-04-20T20:43:39.425Z,79.30
2019-04-20T20:46:09.192Z,81.30
2019-04-20T20:48:38.273Z,83.50
2019-04-20T20:51:14.993Z,85.40
2019-04-20T20:53:41.704Z,89.40
2019-04-20T20:56:06.381Z,90.40
2019-04-20T20:58:43.735Z,91.90
2019-04-20T21:01:09.538Z,92.80
2019-04-20T21:03:41.406Z,94.90
2019-04-20T21:06:05.502Z,95.60
2019-04-20T21:08:44.883Z,96.80
2019-04-20T21:11:14.734Z,97.30
2019-04-20T21:13:42.865Z,98.20
2019-04-20T21:16:15.403Z,98.30
2019-04-20T21:18:56.788Z,99.30
2019-04-20T21:21:29.486Z,99.90
2019-04-20T21:23:53.100Z,99.90
2019-04-20T21:26:21.789Z,99.90
2019-04-20T21:28:46.434Z,99.90
2019-04-20T21:31:23.525Z,99.90
2019-04-20T21:33:51.066Z,99.90
2019-04-20T21:36:24.684Z,99.90
2019-04-20T21:38:52.043Z,99.90
2019-04-20T21:41:23.918Z,99.90
2019-04-20T21:43:54.021Z,99.90
2019-04-20T21:46:24.921Z,99.90
2019-04-20T21:49:07.738Z,99.90
2019-04-20T21:51:37.078Z,99.90
2019-04-20T21:53:59.789Z,99.90
2019-04-20T21:56:30.010Z,99.90
2019-04-20T21:59:02.683Z,99.90
2019-04-20T22:01:38.810Z,99.90
2019-04-20T22:04:02.754Z,99.90
2019-04-20T22:06:32.457Z,99.90
2019-04-20T22:09:04.019Z,99.90
2019-04-20T22:11:33.768Z,99.90
2019-04-20T22:14:11.450Z,99.90
2019-04-20T22:16:41.734Z,99.90
2019-04-20T22:19:22.749Z,99.90
2019-04-20T22:21:51.765Z,99.90
2019-04-20T22:24:27.102Z,99.90
2019-04-20T22:26:52.531Z,99.90
2019-04-20T22:29:12.137Z,99.90
2019-04-20T22:31:46.201Z,99.90
2019-04-20T22:34:17.428Z,99.90
2019-04-20T22:36:48.439Z,99.90
2019-04-20T22:39:31.216Z,99.90
2019-04-20T22:42:00.079Z,99.90
2019-04-20T22:44:28.415Z,99.90
2019-04-20T22:46:58.497Z,99.90
2019-04-20T22:49:44.110Z,99.90
2019-04-20T22:52:11.867Z,99.90
2019-04-20T22:54:47.406Z,99.90
2019-04-20T22:57:11.796Z,99.90
2019-04-20T22:59:41.857Z,99.90
2019-04-20T23:02:06.504Z,99.90
2019-04-20T23:04:37.089Z,99.90
2019-04-20T23:07:08.432Z,99.90
2019-04-20T23:09:45.912Z,99.90
2019-04-20T23:12:15.744Z,99.90
2019-04-20T23:14:42.426Z,99.90
2019-04-20T23:17:12.488Z,99.90
2019-04-20T23:19:49.422Z,99.90
2019-04-20T23:22:17.462Z,99.90
2019-04-20T23:24:47.187Z,99.90
2019-04-20T23:27:21.991Z,99.90
2019-04-20T23:29:49.217Z,99.90
2019-04-20T23:32:19.884Z,99.90
2019-04-20T23:34:57.649Z,99.90
2019-04-20T23:37:28.218Z,99.90
2019-04-20T23:39:54.458Z,99.90
2019-04-20T23:42:34.887Z,99.90
2019-04-20T23:45:38.573Z,99.90
2019-04-20T23:48:07.128Z,99.90
2019-04-20T23:50:56.922Z,99.90
2019-04-20T23:53:24.328Z,99.90
2019-04-20T23:55:41.369Z,99.90
2019-04-20T23:58:12.966Z,99.90
